sensor_id;sensor_type;location;lat;lon;timestamp;pressure;altitude;pressure_sealevel;temperature;humidity
3544;BME280;1786;52.870;9.578;2022-07-17T00:02:10;101695.31;;;26.47;43.67
3544;BME280;1786;52.870;9.578;2022-07-17T00:04:38;101689.72;;;26.40;43.13
3544;BME280;1786;52.870;9.578;2022-07-17T00:07:05;101690.56;;;26.41;42.97
3544;BME280;1786;52.870;9.578;2022-07-17T00:09:32;101683.19;;;26.18;43.37
3544;BME280;1786;52.870;9.578;2022-07-17T00:11:58;101686.25;;;26.23;43.35
3544;BME280;1786;52.870;9.578;2022-07-17T00:14:25;101684.03;;;26.10;43.21
3544;BME280;1786;52.870;9.578;2022-07-17T00:16:52;101680.66;;;26.17;42.93
3544;BME280;1786;52.870;9.578;2022-07-17T00:19:20;101679.81;;;26.08;43.41
3544;BME280;1786;52.870;9.578;2022-07-17T00:21:47;101678.81;;;26.09;42.95
3544;BME280;1786;52.870;9.578;2022-07-17T00:24:13;101673.59;;;25.91;43.16
3544;BME280;1786;52.870;9.578;2022-07-17T00:26:47;101681.56;;;25.68;43.95
3544;BME280;1786;52.870;9.578;2022-07-17T00:29:15;101679.34;;;25.63;43.83
3544;BME280;1786;52.870;9.578;2022-07-17T00:31:42;101679.50;;;25.62;43.83
3544;BME280;1786;52.870;9.578;2022-07-17T00:34:10;101680.69;;;25.76;43.80
3544;BME280;1786;52.870;9.578;2022-07-17T00:36:37;101684.41;;;25.58;44.36
3544;BME280;1786;52.870;9.578;2022-07-17T00:39:04;101676.13;;;25.60;43.97
3544;BME280;1786;52.870;9.578;2022-07-17T00:41:31;101680.50;;;25.77;43.75
3544;BME280;1786;52.870;9.578;2022-07-17T00:44:13;101678.50;;;25.71;44.24
3544;BME280;1786;52.870;9.578;2022-07-17T00:46:40;101676.63;;;25.63;43.79
3544;BME280;1786;52.870;9.578;2022-07-17T00:49:07;101677.47;;;25.64;44.08
3544;BME280;1786;52.870;9.578;2022-07-17T00:51:35;101675.09;;;25.77;43.90
3544;BME280;1786;52.870;9.578;2022-07-17T00:54:02;101670.72;;;25.76;43.97
3544;BME280;1786;52.870;9.578;2022-07-17T00:56:36;101680.34;;;25.62;43.62
3544;BME280;1786;52.870;9.578;2022-07-17T00:59:03;101682.56;;;25.67;43.44
3544;BME280;1786;52.870;9.578;2022-07-17T01:01:32;101673.41;;;25.52;43.90
3544;BME280;1786;52.870;9.578;2022-07-17T01:03:59;101672.72;;;25.50;43.48
3544;BME280;1786;52.870;9.578;2022-07-17T01:06:26;101670.03;;;25.50;43.40
3544;BME280;1786;52.870;9.578;2022-07-17T01:08:53;101675.44;;;25.41;43.89
3544;BME280;1786;52.870;9.578;2022-07-17T01:11:19;101675.28;;;25.43;43.83
3544;BME280;1786;52.870;9.578;2022-07-17T01:13:46;101674.09;;;25.45;44.01
3544;BME280;1786;52.870;9.578;2022-07-17T01:16:14;101673.69;;;25.16;44.90
3544;BME280;1786;52.870;9.578;2022-07-17T01:18:41;101676.31;;;24.91;45.62
3544;BME280;1786;52.870;9.578;2022-07-17T01:21:08;101682.28;;;25.03;45.26
3544;BME280;1786;52.870;9.578;2022-07-17T01:23:34;101674.91;;;25.21;45.07
3544;BME280;1786;52.870;9.578;2022-07-17T01:26:01;101682.03;;;25.31;45.10
3544;BME280;1786;52.870;9.578;2022-07-17T01:28:27;101674.69;;;25.15;45.50
3544;BME280;1786;52.870;9.578;2022-07-17T01:30:56;101674.06;;;25.29;44.60
3544;BME280;1786;52.870;9.578;2022-07-17T01:33:23;101672.25;;;25.38;44.42
3544;BME280;1786;52.870;9.578;2022-07-17T01:35:51;101678.84;;;25.35;44.20
3544;BME280;1786;52.870;9.578;2022-07-17T01:38:18;101678.50;;;25.46;44.27
3544;BME280;1786;52.870;9.578;2022-07-17T01:40:45;101681.53;;;25.43;44.00
3544;BME280;1786;52.870;9.578;2022-07-17T01:43:11;101687.44;;;25.31;44.50
3544;BME280;1786;52.870;9.578;2022-07-17T01:45:38;101683.91;;;25.38;43.94
3544;BME280;1786;52.870;9.578;2022-07-17T01:48:05;101689.97;;;25.32;44.89
3544;BME280;1786;52.870;9.578;2022-07-17T01:50:32;101681.00;;;25.32;44.39
3544;BME280;1786;52.870;9.578;2022-07-17T01:52:58;101688.44;;;25.30;44.60
3544;BME280;1786;52.870;9.578;2022-07-17T01:55:25;101690.31;;;25.37;44.46
3544;BME280;1786;52.870;9.578;2022-07-17T01:57:51;101680.16;;;25.23;44.50
3544;BME280;1786;52.870;9.578;2022-07-17T02:00:20;101690.50;;;25.28;44.57
3544;BME280;1786;52.870;9.578;2022-07-17T02:02:50;101681.84;;;25.32;44.66
3544;BME280;1786;52.870;9.578;2022-07-17T02:05:17;101676.09;;;25.19;44.67
3544;BME280;1786;52.870;9.578;2022-07-17T02:07:43;101683.50;;;25.17;44.51
3544;BME280;1786;52.870;9.578;2022-07-17T02:10:11;101689.22;;;25.05;44.33
3544;BME280;1786;52.870;9.578;2022-07-17T02:12:42;101690.91;;;25.07;44.48
3544;BME280;1786;52.870;9.578;2022-07-17T02:15:10;101690.75;;;25.08;44.33
3544;BME280;1786;52.870;9.578;2022-07-17T02:17:37;101687.56;;;25.13;44.39
3544;BME280;1786;52.870;9.578;2022-07-17T02:20:04;101690.78;;;25.16;44.12
3544;BME280;1786;52.870;9.578;2022-07-17T02:22:32;101684.50;;;25.08;44.28
3544;BME280;1786;52.870;9.578;2022-07-17T02:24:59;101688.22;;;25.15;44.24
3544;BME280;1786;52.870;9.578;2022-07-17T02:27:26;101689.91;;;25.16;44.38
3544;BME280;1786;52.870;9.578;2022-07-17T02:29:52;101683.88;;;25.22;44.09
3544;BME280;1786;52.870;9.578;2022-07-17T02:32:19;101687.56;;;25.13;44.62
3544;BME280;1786;52.870;9.578;2022-07-17T02:34:46;101689.47;;;25.20;43.99
3544;BME280;1786;52.870;9.578;2022-07-17T02:37:13;101692.44;;;25.09;44.51
3544;BME280;1786;52.870;9.578;2022-07-17T02:39:39;101685.84;;;25.03;44.51
3544;BME280;1786;52.870;9.578;2022-07-17T02:42:27;101701.38;;;25.10;44.73
3544;BME280;1786;52.870;9.578;2022-07-17T02:44:55;101703.56;;;24.98;44.79
3544;BME280;1786;52.870;9.578;2022-07-17T02:47:30;101698.66;;;24.93;44.58
3544;BME280;1786;52.870;9.578;2022-07-17T02:49:58;101705.94;;;25.01;44.84
3544;BME280;1786;52.870;9.578;2022-07-17T02:52:25;101709.81;;;24.98;44.93
3544;BME280;1786;52.870;9.578;2022-07-17T02:54:52;101708.84;;;25.08;44.50
3544;BME280;1786;52.870;9.578;2022-07-17T02:57:19;101709.66;;;25.00;44.72
3544;BME280;1786;52.870;9.578;2022-07-17T02:59:46;101718.63;;;25.09;44.49
3544;BME280;1786;52.870;9.578;2022-07-17T03:02:14;101722.00;;;25.02;44.09
3544;BME280;1786;52.870;9.578;2022-07-17T03:04:40;101726.03;;;24.98;44.77
3544;BME280;1786;52.870;9.578;2022-07-17T03:07:07;101730.75;;;24.96;44.60
3544;BME280;1786;52.870;9.578;2022-07-17T03:09:34;101718.78;;;24.99;44.45
3544;BME280;1786;52.870;9.578;2022-07-17T03:12:01;101719.09;;;24.96;44.65
3544;BME280;1786;52.870;9.578;2022-07-17T03:14:27;101723.50;;;24.97;44.09
3544;BME280;1786;52.870;9.578;2022-07-17T03:16:54;101730.63;;;24.98;44.12
3544;BME280;1786;52.870;9.578;2022-07-17T03:19:22;101728.06;;;24.96;44.39
3544;BME280;1786;52.870;9.578;2022-07-17T03:21:49;101734.13;;;24.90;44.35
3544;BME280;1786;52.870;9.578;2022-07-17T03:24:16;101728.41;;;24.93;44.48
3544;BME280;1786;52.870;9.578;2022-07-17T03:26:43;101733.59;;;24.87;44.77
3544;BME280;1786;52.870;9.578;2022-07-17T03:29:10;101742.19;;;24.82;44.29
3544;BME280;1786;52.870;9.578;2022-07-17T03:31:37;101740.72;;;24.88;44.18
3544;BME280;1786;52.870;9.578;2022-07-17T03:34:05;101741.00;;;24.76;44.79
3544;BME280;1786;52.870;9.578;2022-07-17T03:36:32;101750.63;;;24.79;44.43
3544;BME280;1786;52.870;9.578;2022-07-17T03:38:58;101744.22;;;24.80;44.36
3544;BME280;1786;52.870;9.578;2022-07-17T03:41:25;101743.25;;;24.89;44.18
3544;BME280;1786;52.870;9.578;2022-07-17T03:43:53;101746.38;;;24.68;44.44
3544;BME280;1786;52.870;9.578;2022-07-17T03:46:20;101738.16;;;24.86;44.58
3544;BME280;1786;52.870;9.578;2022-07-17T03:48:46;101735.81;;;24.91;44.49
3544;BME280;1786;52.870;9.578;2022-07-17T03:51:13;101736.16;;;24.96;44.63
3544;BME280;1786;52.870;9.578;2022-07-17T03:53:40;101724.66;;;24.94;44.74
3544;BME280;1786;52.870;9.578;2022-07-17T03:56:07;101714.38;;;24.98;44.99
3544;BME280;1786;52.870;9.578;2022-07-17T03:58:34;101705.78;;;25.02;45.27
3544;BME280;1786;52.870;9.578;2022-07-17T04:01:02;101698.75;;;25.18;44.95
3544;BME280;1786;52.870;9.578;2022-07-17T04:03:29;101688.97;;;25.33;45.22
3544;BME280;1786;52.870;9.578;2022-07-17T04:05:55;101706.06;;;25.58;45.43
3544;BME280;1786;52.870;9.578;2022-07-17T04:08:22;101709.13;;;25.72;45.59
3544;BME280;1786;52.870;9.578;2022-07-17T04:10:49;101722.50;;;25.89;45.10
3544;BME280;1786;52.870;9.578;2022-07-17T04:13:16;101717.44;;;26.11;44.85
3544;BME280;1786;52.870;9.578;2022-07-17T04:15:43;101722.47;;;26.22;45.23
3544;BME280;1786;52.870;9.578;2022-07-17T04:18:16;101736.50;;;26.34;45.03
3544;BME280;1786;52.870;9.578;2022-07-17T04:20:43;101752.41;;;26.45;44.76
3544;BME280;1786;52.870;9.578;2022-07-17T04:23:09;101759.03;;;26.59;44.80
3544;BME280;1786;52.870;9.578;2022-07-17T04:25:37;101759.72;;;26.37;44.74
3544;BME280;1786;52.870;9.578;2022-07-17T04:28:04;101761.91;;;26.41;44.59
3544;BME280;1786;52.870;9.578;2022-07-17T04:30:32;101758.19;;;26.59;44.26
3544;BME280;1786;52.870;9.578;2022-07-17T04:32:59;101756.66;;;26.40;44.84
3544;BME280;1786;52.870;9.578;2022-07-17T04:35:25;101758.50;;;26.55;44.76
3544;BME280;1786;52.870;9.578;2022-07-17T04:37:52;101757.97;;;26.60;44.35
3544;BME280;1786;52.870;9.578;2022-07-17T04:40:19;101757.50;;;26.96;43.66
3544;BME280;1786;52.870;9.578;2022-07-17T04:42:46;101754.19;;;27.25;43.45
3544;BME280;1786;52.870;9.578;2022-07-17T04:45:13;101747.84;;;27.33;43.36
3544;BME280;1786;52.870;9.578;2022-07-17T04:47:42;101748.16;;;27.38;43.63
3544;BME280;1786;52.870;9.578;2022-07-17T04:50:09;101741.53;;;27.40;43.84
3544;BME280;1786;52.870;9.578;2022-07-17T04:52:36;101749.41;;;26.88;44.25
3544;BME280;1786;52.870;9.578;2022-07-17T04:55:04;101750.09;;;26.90;44.65
3544;BME280;1786;52.870;9.578;2022-07-17T04:57:30;101737.78;;;27.10;43.95
3544;BME280;1786;52.870;9.578;2022-07-17T04:59:58;101735.63;;;26.97;44.04
3544;BME280;1786;52.870;9.578;2022-07-17T05:02:24;101729.31;;;27.05;44.38
3544;BME280;1786;52.870;9.578;2022-07-17T05:04:51;101737.50;;;26.97;44.56
3544;BME280;1786;52.870;9.578;2022-07-17T05:07:18;101741.28;;;25.66;46.61
3544;BME280;1786;52.870;9.578;2022-07-17T05:09:45;101741.91;;;25.36;47.43
3544;BME280;1786;52.870;9.578;2022-07-17T05:12:12;101738.06;;;25.12;47.94
3544;BME280;1786;52.870;9.578;2022-07-17T05:14:38;101743.72;;;25.19;48.30
3544;BME280;1786;52.870;9.578;2022-07-17T05:17:05;101744.06;;;25.24;48.38
3544;BME280;1786;52.870;9.578;2022-07-17T05:19:31;101751.78;;;26.10;46.88
3544;BME280;1786;52.870;9.578;2022-07-17T05:21:59;101749.47;;;27.19;45.18
3544;BME280;1786;52.870;9.578;2022-07-17T05:24:26;101752.38;;;27.63;44.32
3544;BME280;1786;52.870;9.578;2022-07-17T05:26:52;101757.13;;;26.68;46.22
3544;BME280;1786;52.870;9.578;2022-07-17T05:29:20;101743.97;;;25.58;47.67
3544;BME280;1786;52.870;9.578;2022-07-17T05:31:47;101752.84;;;26.82;45.50
3544;BME280;1786;52.870;9.578;2022-07-17T05:34:13;101745.31;;;25.62;47.60
3544;BME280;1786;52.870;9.578;2022-07-17T05:36:40;101751.00;;;25.26;48.98
3544;BME280;1786;52.870;9.578;2022-07-17T05:39:07;101746.72;;;25.08;48.96
3544;BME280;1786;52.870;9.578;2022-07-17T05:41:35;101751.97;;;25.17;49.03
3544;BME280;1786;52.870;9.578;2022-07-17T05:44:02;101760.75;;;25.95;47.68
3544;BME280;1786;52.870;9.578;2022-07-17T05:46:29;101764.44;;;27.38;45.31
3544;BME280;1786;52.870;9.578;2022-07-17T05:48:55;101763.81;;;27.82;44.99
3544;BME280;1786;52.870;9.578;2022-07-17T05:51:22;101761.34;;;27.18;45.31
3544;BME280;1786;52.870;9.578;2022-07-17T05:53:51;101758.09;;;28.00;44.69
3544;BME280;1786;52.870;9.578;2022-07-17T05:56:17;101760.19;;;28.27;44.21
3544;BME280;1786;52.870;9.578;2022-07-17T05:58:45;101763.06;;;28.49;43.62
3544;BME280;1786;52.870;9.578;2022-07-17T06:01:12;101767.94;;;28.83;43.08
3544;BME280;1786;52.870;9.578;2022-07-17T06:03:38;101754.91;;;28.64;43.67
3544;BME280;1786;52.870;9.578;2022-07-17T06:06:05;101767.38;;;28.88;43.60
3544;BME280;1786;52.870;9.578;2022-07-17T06:08:33;101762.00;;;28.35;44.11
3544;BME280;1786;52.870;9.578;2022-07-17T06:10:59;101763.88;;;28.50;43.91
3544;BME280;1786;52.870;9.578;2022-07-17T06:13:26;101771.13;;;27.27;45.84
3544;BME280;1786;52.870;9.578;2022-07-17T06:15:52;101773.25;;;26.37;47.74
3544;BME280;1786;52.870;9.578;2022-07-17T06:18:19;101776.22;;;26.83;47.17
3544;BME280;1786;52.870;9.578;2022-07-17T06:20:46;101782.69;;;26.73;47.16
3544;BME280;1786;52.870;9.578;2022-07-17T06:23:13;101788.47;;;27.18;47.06
3544;BME280;1786;52.870;9.578;2022-07-17T06:25:39;101780.88;;;27.45;46.24
3544;BME280;1786;52.870;9.578;2022-07-17T06:28:06;101778.25;;;28.05;46.17
3544;BME280;1786;52.870;9.578;2022-07-17T06:30:32;101778.16;;;28.81;45.06
3544;BME280;1786;52.870;9.578;2022-07-17T06:32:59;101778.00;;;29.55;44.70
3544;BME280;1786;52.870;9.578;2022-07-17T06:35:26;101783.56;;;30.61;43.40
3544;BME280;1786;52.870;9.578;2022-07-17T06:37:53;101797.03;;;31.59;42.04
3544;BME280;1786;52.870;9.578;2022-07-17T06:40:19;101808.22;;;32.78;40.16
3544;BME280;1786;52.870;9.578;2022-07-17T06:42:46;101809.16;;;34.43;38.31
3544;BME280;1786;52.870;9.578;2022-07-17T06:45:13;101817.13;;;35.86;35.81
3544;BME280;1786;52.870;9.578;2022-07-17T06:47:39;101823.28;;;37.06;35.17
3544;BME280;1786;52.870;9.578;2022-07-17T06:50:07;101819.13;;;38.28;34.24
3544;BME280;1786;52.870;9.578;2022-07-17T06:52:34;101839.47;;;39.66;32.21
3544;BME280;1786;52.870;9.578;2022-07-17T06:55:02;101839.38;;;40.57;31.19
3544;BME280;1786;52.870;9.578;2022-07-17T06:57:28;101838.44;;;40.84;30.57
3544;BME280;1786;52.870;9.578;2022-07-17T06:59:55;101835.00;;;41.24;30.42
3544;BME280;1786;52.870;9.578;2022-07-17T07:02:22;101829.81;;;40.75;30.94
3544;BME280;1786;52.870;9.578;2022-07-17T07:04:49;101828.19;;;40.90;30.46
3544;BME280;1786;52.870;9.578;2022-07-17T07:07:16;101834.84;;;40.88;31.30
3544;BME280;1786;52.870;9.578;2022-07-17T07:09:42;101839.72;;;40.23;31.25
3544;BME280;1786;52.870;9.578;2022-07-17T07:12:09;101844.03;;;40.94;30.52
3544;BME280;1786;52.870;9.578;2022-07-17T07:14:36;101842.59;;;40.81;31.05
3544;BME280;1786;52.870;9.578;2022-07-17T07:17:02;101837.06;;;39.25;31.65
3544;BME280;1786;52.870;9.578;2022-07-17T07:19:29;101841.06;;;39.12;31.32
3544;BME280;1786;52.870;9.578;2022-07-17T07:21:56;101840.59;;;38.77;32.23
3544;BME280;1786;52.870;9.578;2022-07-17T07:24:23;101834.88;;;38.61;32.65
3544;BME280;1786;52.870;9.578;2022-07-17T07:26:50;101844.88;;;38.67;32.85
3544;BME280;1786;52.870;9.578;2022-07-17T07:29:16;101841.19;;;38.06;33.42
3544;BME280;1786;52.870;9.578;2022-07-17T07:31:43;101854.53;;;38.65;32.70
3544;BME280;1786;52.870;9.578;2022-07-17T07:34:10;101857.63;;;38.68;32.13
3544;BME280;1786;52.870;9.578;2022-07-17T07:36:36;101848.38;;;38.80;31.25
3544;BME280;1786;52.870;9.578;2022-07-17T07:39:03;101857.41;;;38.92;31.97
3544;BME280;1786;52.870;9.578;2022-07-17T07:41:30;101851.19;;;38.85;32.29
3544;BME280;1786;52.870;9.578;2022-07-17T07:43:57;101848.09;;;38.98;31.95
3544;BME280;1786;52.870;9.578;2022-07-17T07:46:24;101842.56;;;38.59;32.53
3544;BME280;1786;52.870;9.578;2022-07-17T07:48:51;101840.31;;;38.39;32.29
3544;BME280;1786;52.870;9.578;2022-07-17T07:51:18;101850.03;;;38.25;32.97
3544;BME280;1786;52.870;9.578;2022-07-17T07:54:04;101854.94;;;38.73;33.20
3544;BME280;1786;52.870;9.578;2022-07-17T07:56:31;101861.59;;;39.93;31.99
3544;BME280;1786;52.870;9.578;2022-07-17T07:58:58;101860.69;;;41.04;30.02
3544;BME280;1786;52.870;9.578;2022-07-17T08:01:25;101870.66;;;41.84;31.07
3544;BME280;1786;52.870;9.578;2022-07-17T08:03:52;101880.09;;;42.60;29.64
3544;BME280;1786;52.870;9.578;2022-07-17T08:06:18;101888.75;;;43.33;28.39
3544;BME280;1786;52.870;9.578;2022-07-17T08:08:45;101882.31;;;42.52;28.97
3544;BME280;1786;52.870;9.578;2022-07-17T08:11:12;101872.19;;;42.97;28.21
3544;BME280;1786;52.870;9.578;2022-07-17T08:13:39;101873.66;;;42.85;28.22
3544;BME280;1786;52.870;9.578;2022-07-17T08:16:06;101882.31;;;41.91;28.02
3544;BME280;1786;52.870;9.578;2022-07-17T08:18:33;101881.66;;;41.48;29.58
3544;BME280;1786;52.870;9.578;2022-07-17T08:21:01;101881.38;;;41.34;29.47
3544;BME280;1786;52.870;9.578;2022-07-17T08:23:27;101886.09;;;40.38;29.80
3544;BME280;1786;52.870;9.578;2022-07-17T08:25:54;101883.78;;;39.22;31.38
3544;BME280;1786;52.870;9.578;2022-07-17T08:28:20;101876.44;;;39.54;30.87
3544;BME280;1786;52.870;9.578;2022-07-17T08:30:48;101876.22;;;39.61;30.80
3544;BME280;1786;52.870;9.578;2022-07-17T08:33:14;101881.75;;;39.34;31.56
3544;BME280;1786;52.870;9.578;2022-07-17T08:35:42;101876.91;;;39.24;31.36
3544;BME280;1786;52.870;9.578;2022-07-17T08:38:09;101880.69;;;39.40;31.11
3544;BME280;1786;52.870;9.578;2022-07-17T08:40:38;101873.34;;;39.51;31.27
3544;BME280;1786;52.870;9.578;2022-07-17T08:43:07;101882.06;;;39.65;31.69
3544;BME280;1786;52.870;9.578;2022-07-17T08:45:35;101882.59;;;38.95;32.21
3544;BME280;1786;52.870;9.578;2022-07-17T08:48:13;101878.94;;;38.90;32.21
3544;BME280;1786;52.870;9.578;2022-07-17T08:50:41;101882.09;;;38.26;32.69
3544;BME280;1786;52.870;9.578;2022-07-17T08:53:08;101875.22;;;38.28;32.67
3544;BME280;1786;52.870;9.578;2022-07-17T08:55:35;101876.31;;;38.61;32.46
3544;BME280;1786;52.870;9.578;2022-07-17T08:58:02;101889.31;;;38.44;33.56
3544;BME280;1786;52.870;9.578;2022-07-17T09:00:31;101882.25;;;38.53;32.37
3544;BME280;1786;52.870;9.578;2022-07-17T09:03:05;101881.78;;;38.78;32.25
3544;BME280;1786;52.870;9.578;2022-07-17T09:05:36;101887.91;;;38.80;31.54
3544;BME280;1786;52.870;9.578;2022-07-17T09:08:06;101894.63;;;39.99;30.43
3544;BME280;1786;52.870;9.578;2022-07-17T09:13:19;101896.41;;;40.48;29.88
3544;BME280;1786;52.870;9.578;2022-07-17T09:15:46;101898.03;;;40.44;29.71
3544;BME280;1786;52.870;9.578;2022-07-17T09:18:14;101894.69;;;39.55;31.61
3544;BME280;1786;52.870;9.578;2022-07-17T09:20:49;101894.19;;;40.13;30.43
3544;BME280;1786;52.870;9.578;2022-07-17T09:23:18;101901.78;;;40.65;30.69
3544;BME280;1786;52.870;9.578;2022-07-17T09:25:49;101891.91;;;40.05;31.22
3544;BME280;1786;52.870;9.578;2022-07-17T09:28:17;101895.88;;;40.51;30.62
3544;BME280;1786;52.870;9.578;2022-07-17T09:30:52;101889.72;;;40.86;30.10
3544;BME280;1786;52.870;9.578;2022-07-17T09:33:22;101891.09;;;41.37;30.46
3544;BME280;1786;52.870;9.578;2022-07-17T09:35:51;101893.13;;;41.62;30.87
3544;BME280;1786;52.870;9.578;2022-07-17T09:38:32;101896.72;;;41.62;29.98
3544;BME280;1786;52.870;9.578;2022-07-17T09:41:03;101896.72;;;41.57;29.22
3544;BME280;1786;52.870;9.578;2022-07-17T09:46:13;101877.84;;;38.91;32.31
3544;BME280;1786;52.870;9.578;2022-07-17T09:48:43;101869.34;;;38.42;33.53
3544;BME280;1786;52.870;9.578;2022-07-17T09:51:16;101868.09;;;38.32;32.74
3544;BME280;1786;52.870;9.578;2022-07-17T09:53:48;101864.53;;;38.49;32.19
3544;BME280;1786;52.870;9.578;2022-07-17T09:56:17;101857.63;;;38.35;31.73
3544;BME280;1786;52.870;9.578;2022-07-17T09:58:55;101868.31;;;38.82;31.69
3544;BME280;1786;52.870;9.578;2022-07-17T10:01:23;101865.81;;;38.63;33.18
3544;BME280;1786;52.870;9.578;2022-07-17T10:03:50;101870.75;;;39.39;32.27
3544;BME280;1786;52.870;9.578;2022-07-17T10:06:21;101871.63;;;39.72;31.52
3544;BME280;1786;52.870;9.578;2022-07-17T10:08:49;101872.16;;;39.96;31.29
3544;BME280;1786;52.870;9.578;2022-07-17T10:11:19;101860.34;;;39.51;31.87
3544;BME280;1786;52.870;9.578;2022-07-17T10:13:48;101863.50;;;39.16;30.78
3544;BME280;1786;52.870;9.578;2022-07-17T10:16:24;101856.72;;;38.85;31.18
3544;BME280;1786;52.870;9.578;2022-07-17T10:18:51;101868.97;;;38.33;31.58
3544;BME280;1786;52.870;9.578;2022-07-17T10:21:22;101865.75;;;37.62;32.47
3544;BME280;1786;52.870;9.578;2022-07-17T10:29:09;101848.69;;;37.65;33.79
3544;BME280;1786;52.870;9.578;2022-07-17T10:31:51;101857.78;;;38.28;32.48
3544;BME280;1786;52.870;9.578;2022-07-17T10:34:18;101846.22;;;38.65;32.54
3544;BME280;1786;52.870;9.578;2022-07-17T10:36:48;101856.59;;;38.74;32.12
3544;BME280;1786;52.870;9.578;2022-07-17T10:39:20;101858.66;;;38.84;31.15
3544;BME280;1786;52.870;9.578;2022-07-17T10:41:56;101851.50;;;39.05;31.87
3544;BME280;1786;52.870;9.578;2022-07-17T10:44:28;101852.50;;;39.21;31.92
3544;BME280;1786;52.870;9.578;2022-07-17T10:46:55;101857.97;;;39.16;32.32
3544;BME280;1786;52.870;9.578;2022-07-17T10:49:23;101871.91;;;39.97;32.27
3544;BME280;1786;52.870;9.578;2022-07-17T10:51:51;101867.88;;;39.83;31.01
3544;BME280;1786;52.870;9.578;2022-07-17T10:54:32;101870.22;;;40.29;30.79
3544;BME280;1786;52.870;9.578;2022-07-17T10:57:02;101870.78;;;41.16;29.68
3544;BME280;1786;52.870;9.578;2022-07-17T10:59:29;101875.91;;;40.49;29.78
3544;BME280;1786;52.870;9.578;2022-07-17T11:01:56;101858.16;;;39.53;30.04
3544;BME280;1786;52.870;9.578;2022-07-17T11:04:24;101855.47;;;39.14;31.08
3544;BME280;1786;52.870;9.578;2022-07-17T11:06:51;101863.13;;;40.11;31.14
3544;BME280;1786;52.870;9.578;2022-07-17T11:09:18;101861.94;;;40.34;30.23
3544;BME280;1786;52.870;9.578;2022-07-17T11:11:51;101856.47;;;41.80;29.77
3544;BME280;1786;52.870;9.578;2022-07-17T11:14:21;101855.38;;;41.86;29.14
3544;BME280;1786;52.870;9.578;2022-07-17T11:16:52;101859.56;;;41.89;29.56
3544;BME280;1786;52.870;9.578;2022-07-17T11:19:37;101856.75;;;42.35;29.50
3544;BME280;1786;52.870;9.578;2022-07-17T11:22:07;101864.78;;;42.67;29.60
3544;BME280;1786;52.870;9.578;2022-07-17T11:24:39;101856.25;;;41.97;28.08
3544;BME280;1786;52.870;9.578;2022-07-17T11:27:10;101849.31;;;42.00;29.46
3544;BME280;1786;52.870;9.578;2022-07-17T11:29:43;101844.19;;;42.63;29.36
3544;BME280;1786;52.870;9.578;2022-07-17T11:32:09;101851.94;;;42.76;27.73
3544;BME280;1786;52.870;9.578;2022-07-17T11:34:37;101847.25;;;42.82;27.34
3544;BME280;1786;52.870;9.578;2022-07-17T11:37:06;101850.09;;;42.21;28.84
3544;BME280;1786;52.870;9.578;2022-07-17T11:39:47;101851.47;;;42.28;28.22
3544;BME280;1786;52.870;9.578;2022-07-17T11:42:17;101841.72;;;42.56;27.01
3544;BME280;1786;52.870;9.578;2022-07-17T11:44:45;101842.28;;;42.53;27.47
3544;BME280;1786;52.870;9.578;2022-07-17T11:47:20;101827.88;;;42.15;27.43
3544;BME280;1786;52.870;9.578;2022-07-17T11:49:47;101823.00;;;41.08;29.74
3544;BME280;1786;52.870;9.578;2022-07-17T11:52:17;101834.56;;;41.73;29.74
3544;BME280;1786;52.870;9.578;2022-07-17T11:54:50;101831.72;;;41.48;28.51
3544;BME280;1786;52.870;9.578;2022-07-17T11:57:18;101830.41;;;41.81;29.61
3544;BME280;1786;52.870;9.578;2022-07-17T11:59:45;101836.19;;;42.26;28.88
3544;BME280;1786;52.870;9.578;2022-07-17T12:02:15;101821.66;;;41.16;28.00
3544;BME280;1786;52.870;9.578;2022-07-17T12:04:49;101830.97;;;42.19;28.89
3544;BME280;1786;52.870;9.578;2022-07-17T12:07:17;101830.09;;;42.49;28.22
3544;BME280;1786;52.870;9.578;2022-07-17T12:09:43;101832.88;;;42.24;28.24
3544;BME280;1786;52.870;9.578;2022-07-17T12:12:20;101832.84;;;42.60;28.70
3544;BME280;1786;52.870;9.578;2022-07-17T12:14:54;101825.66;;;41.61;29.27
3544;BME280;1786;52.870;9.578;2022-07-17T12:17:21;101812.94;;;41.96;27.71
3544;BME280;1786;52.870;9.578;2022-07-17T12:19:48;101823.41;;;42.35;28.92
3544;BME280;1786;52.870;9.578;2022-07-17T12:22:15;101817.78;;;41.17;28.69
3544;BME280;1786;52.870;9.578;2022-07-17T12:24:44;101812.88;;;41.55;28.42
3544;BME280;1786;52.870;9.578;2022-07-17T12:27:15;101807.31;;;41.55;28.97
3544;BME280;1786;52.870;9.578;2022-07-17T12:29:43;101819.03;;;40.89;29.77
3544;BME280;1786;52.870;9.578;2022-07-17T12:32:15;101828.97;;;41.53;29.56
3544;BME280;1786;52.870;9.578;2022-07-17T12:34:47;101828.19;;;42.19;28.73
3544;BME280;1786;52.870;9.578;2022-07-17T12:37:16;101813.41;;;42.34;27.47
3544;BME280;1786;52.870;9.578;2022-07-17T12:39:47;101817.34;;;41.87;28.55
3544;BME280;1786;52.870;9.578;2022-07-17T12:42:15;101811.13;;;41.18;29.69
3544;BME280;1786;52.870;9.578;2022-07-17T12:44:43;101814.84;;;41.80;29.26
3544;BME280;1786;52.870;9.578;2022-07-17T12:47:09;101816.22;;;41.88;27.99
3544;BME280;1786;52.870;9.578;2022-07-17T12:49:36;101818.19;;;41.98;28.26
3544;BME280;1786;52.870;9.578;2022-07-17T12:52:04;101805.56;;;42.67;27.96
3544;BME280;1786;52.870;9.578;2022-07-17T12:54:31;101800.91;;;42.52;28.79
3544;BME280;1786;52.870;9.578;2022-07-17T12:56:58;101797.84;;;42.43;28.43
3544;BME280;1786;52.870;9.578;2022-07-17T12:59:25;101787.00;;;43.07;27.83
3544;BME280;1786;52.870;9.578;2022-07-17T13:01:51;101793.31;;;43.28;28.44
3544;BME280;1786;52.870;9.578;2022-07-17T13:04:19;101784.97;;;42.78;28.47
3544;BME280;1786;52.870;9.578;2022-07-17T13:06:47;101784.09;;;42.83;27.58
3544;BME280;1786;52.870;9.578;2022-07-17T13:09:13;101775.94;;;42.26;28.23
3544;BME280;1786;52.870;9.578;2022-07-17T13:11:42;101771.75;;;42.24;26.81
3544;BME280;1786;52.870;9.578;2022-07-17T13:14:11;101773.78;;;42.88;28.09
3544;BME280;1786;52.870;9.578;2022-07-17T13:16:40;101772.22;;;42.56;27.88
3544;BME280;1786;52.870;9.578;2022-07-17T13:19:07;101774.25;;;42.25;28.58
3544;BME280;1786;52.870;9.578;2022-07-17T13:21:34;101774.44;;;42.60;27.53
3544;BME280;1786;52.870;9.578;2022-07-17T13:24:02;101774.75;;;42.48;27.67
3544;BME280;1786;52.870;9.578;2022-07-17T13:26:29;101771.25;;;41.55;28.98